createdAt,value
2023-07-18T00:00:37.159Z,101663.81
2023-07-18T00:01:38.921Z,101662.72
2023-07-18T00:02:40.833Z,101663.84
2023-07-18T00:03:42.324Z,101665.72
2023-07-18T00:04:43.914Z,101665.97
2023-07-18T00:05:45.351Z,101673.38
2023-07-18T00:06:46.922Z,101667.13
2023-07-18T00:07:48.435Z,101673.56
2023-07-18T00:08:49.913Z,101674.53
2023-07-18T00:09:51.666Z,101681.94
2023-07-18T00:10:53.089Z,101677.59
2023-07-18T00:11:54.848Z,101680.50
2023-07-18T00:12:56.504Z,101689.50
2023-07-18T00:13:57.968Z,101684.91
2023-07-18T00:15:00.998Z,101678.59
2023-07-18T00:16:02.598Z,101681.28
2023-07-18T00:17:04.212Z,101681.34
2023-07-18T00:18:05.920Z,101684.03
2023-07-18T00:19:07.429Z,101677.78
2023-07-18T00:20:19.317Z,101678.81
2023-07-18T00:21:21.047Z,101681.47
2023-07-18T00:22:23.014Z,101687.13
2023-07-18T00:23:24.551Z,101689.97
2023-07-18T00:24:26.094Z,101695.50
2023-07-18T00:25:27.695Z,101699.16
2023-07-18T00:26:29.231Z,101700.22
2023-07-18T00:27:30.708Z,101698.41
2023-07-18T00:28:32.223Z,101696.63
2023-07-18T00:29:33.659Z,101706.59
2023-07-18T00:30:35.151Z,101702.91
2023-07-18T00:31:37.317Z,101707.47
2023-07-18T00:32:39.842Z,101701.97
2023-07-18T00:33:41.884Z,101705.72
2023-07-18T00:34:45.424Z,101705.69
2023-07-18T00:35:47.313Z,101707.59
2023-07-18T00:36:48.843Z,101704.88
2023-07-18T00:37:50.880Z,101700.38
2023-07-18T00:38:53.551Z,101710.41
2023-07-18T00:39:55.040Z,101708.66
2023-07-18T00:40:56.527Z,101709.59
2023-07-18T00:41:58.213Z,101705.94
2023-07-18T00:42:59.714Z,101712.38
2023-07-18T00:44:01.190Z,101712.38
2023-07-18T00:45:02.735Z,101712.44
2023-07-18T00:46:05.702Z,101709.78
2023-07-18T00:47:08.667Z,101714.41
2023-07-18T00:48:10.608Z,101715.31
2023-07-18T00:49:12.625Z,101711.75
2023-07-18T00:50:18.091Z,101719.03
2023-07-18T00:51:20.060Z,101719.09
2023-07-18T00:52:22.832Z,101721.84
2023-07-18T00:53:24.620Z,101718.25
2023-07-18T00:54:27.636Z,101717.34
2023-07-18T00:55:29.347Z,101718.19
2023-07-18T00:56:31.373Z,101721.91
2023-07-18T00:57:33.247Z,101717.28
2023-07-18T00:58:35.833Z,101719.09
2023-07-18T00:59:38.970Z,101712.72
2023-07-18T01:00:40.428Z,101715.50
2023-07-18T01:01:42.227Z,101713.72
2023-07-18T01:02:45.919Z,101714.63
2023-07-18T01:03:47.586Z,101713.84
2023-07-18T01:04:49.044Z,101715.81
2023-07-18T01:05:50.581Z,101718.44
2023-07-18T01:06:53.882Z,101715.81
2023-07-18T01:07:55.394Z,101724.03
2023-07-18T01:08:56.915Z,101723.19
2023-07-18T01:10:33.846Z,101725.00
2023-07-18T01:11:35.300Z,101726.88
2023-07-18T01:12:36.761Z,101721.47
2023-07-18T01:13:38.213Z,101724.22
2023-07-18T01:14:41.489Z,101726.09
2023-07-18T01:15:44.341Z,101727.97
2023-07-18T01:16:45.848Z,101721.66
2023-07-18T01:17:47.973Z,101728.91
2023-07-18T01:18:49.517Z,101725.25
2023-07-18T01:19:50.995Z,101723.47
2023-07-18T01:20:53.624Z,101722.63
2023-07-18T01:21:55.079Z,101726.34
2023-07-18T01:23:02.376Z,101730.88
2023-07-18T01:24:04.278Z,101727.97
2023-07-18T01:25:05.978Z,101724.50
2023-07-18T01:26:07.419Z,101722.75
2023-07-18T01:27:08.918Z,101729.19
2023-07-18T01:28:11.811Z,101723.81
2023-07-18T01:29:13.369Z,101729.25
2023-07-18T01:30:16.694Z,101733.88
2023-07-18T01:31:18.272Z,101731.06
2023-07-18T01:32:20.003Z,101726.56
2023-07-18T01:33:21.617Z,101740.28
2023-07-18T01:34:23.105Z,101733.88
2023-07-18T01:35:27.043Z,101730.25
2023-07-18T01:36:29.616Z,101737.56
2023-07-18T01:37:31.107Z,101747.53
2023-07-18T01:38:32.589Z,101736.69
2023-07-18T01:39:34.048Z,101740.31
2023-07-18T01:40:35.568Z,101740.31
2023-07-18T01:41:37.057Z,101735.78
2023-07-18T01:42:38.795Z,101744.00
2023-07-18T01:43:40.282Z,101745.03
2023-07-18T01:44:41.759Z,101736.81
2023-07-18T01:45:43.319Z,101744.91
2023-07-18T01:46:44.798Z,101747.69
2023-07-18T01:47:47.738Z,101755.91
2023-07-18T01:48:49.237Z,101752.28
2023-07-18T01:49:50.723Z,101756.78
2023-07-18T01:50:52.221Z,101750.34
2023-07-18T01:51:53.717Z,101751.34
2023-07-18T01:52:55.328Z,101752.22
2023-07-18T01:53:56.794Z,101749.56
2023-07-18T01:54:59.884Z,101748.66
2023-07-18T01:56:01.364Z,101749.59
2023-07-18T01:57:03.066Z,101751.34
2023-07-18T01:58:04.579Z,101754.13
2023-07-18T01:59:06.033Z,101748.66
2023-07-18T02:00:12.651Z,101751.34
2023-07-18T02:01:14.724Z,101748.72
2023-07-18T02:02:16.584Z,101746.84
2023-07-18T02:03:18.118Z,101745.03
2023-07-18T02:04:19.594Z,101755.06
2023-07-18T02:05:24.083Z,101760.63
2023-07-18T02:06:26.170Z,101758.81
2023-07-18T02:07:28.165Z,101761.53
2023-07-18T02:08:29.650Z,101765.19
2023-07-18T02:09:31.581Z,101768.78
2023-07-18T02:10:33.322Z,101768.78
2023-07-18T02:11:34.802Z,101765.25
2023-07-18T02:12:36.413Z,101761.63
2023-07-18T02:13:38.014Z,101766.16
2023-07-18T02:14:39.757Z,101769.91
2023-07-18T02:15:41.226Z,101776.31
2023-07-18T02:16:42.740Z,101776.28
2023-07-18T02:17:45.023Z,101758.09
2023-07-18T02:18:46.657Z,101772.69
2023-07-18T02:19:48.114Z,101778.25
2023-07-18T02:20:49.563Z,101770.00
2023-07-18T02:21:51.004Z,101769.84
2023-07-18T02:22:52.919Z,101768.13
2023-07-18T02:23:54.330Z,101769.84
2023-07-18T02:24:56.083Z,101772.63
2023-07-18T02:25:57.558Z,101776.28
2023-07-18T02:26:59.348Z,101767.25
2023-07-18T02:28:00.770Z,101773.53
2023-07-18T02:29:02.220Z,101776.38
2023-07-18T02:30:04.617Z,101780.94
2023-07-18T02:31:06.196Z,101777.28
2023-07-18T02:32:07.950Z,101791.88
2023-07-18T02:33:10.244Z,101784.66
2023-07-18T02:34:11.779Z,101794.66
2023-07-18T02:35:19.493Z,101798.34
2023-07-18T02:36:23.172Z,101792.84
2023-07-18T02:37:26.324Z,101795.56
2023-07-18T02:38:27.865Z,101801.03
2023-07-18T02:39:31.435Z,101807.50
2023-07-18T02:40:32.917Z,101795.66
2023-07-18T02:41:40.589Z,101803.91
2023-07-18T02:42:42.023Z,101803.94
2023-07-18T02:43:43.464Z,101806.63
2023-07-18T02:44:46.196Z,101812.16
2023-07-18T02:45:50.370Z,101811.31
2023-07-18T02:46:52.278Z,101813.09
2023-07-18T02:47:53.830Z,101812.22
2023-07-18T02:48:55.360Z,101810.38
2023-07-18T02:49:56.911Z,101811.34
2023-07-18T02:50:58.387Z,101807.75
2023-07-18T02:51:59.900Z,101815.03
2023-07-18T02:53:01.508Z,101804.06
2023-07-18T02:54:03.892Z,101809.53
2023-07-18T02:55:05.972Z,101803.19
2023-07-18T02:56:07.503Z,101808.66
2023-07-18T02:57:08.984Z,101810.50
2023-07-18T02:58:10.506Z,101797.78
2023-07-18T02:59:11.976Z,101802.41
2023-07-18T03:00:26.950Z,101811.50
2023-07-18T03:01:28.726Z,101815.19
2023-07-18T03:02:31.517Z,101818.88
2023-07-18T03:03:35.511Z,101817.09
2023-07-18T03:04:37.066Z,101816.28
2023-07-18T03:05:38.977Z,101826.16
2023-07-18T03:06:40.373Z,101828.00
2023-07-18T03:07:41.810Z,101835.25
2023-07-18T03:08:43.425Z,101833.41
2023-07-18T03:09:45.922Z,101831.59
2023-07-18T03:10:48.274Z,101825.25
2023-07-18T03:11:53.108Z,101823.47
2023-07-18T03:12:55.164Z,101821.69
2023-07-18T03:13:56.788Z,101820.81
2023-07-18T03:14:58.210Z,101824.41
2023-07-18T03:15:59.685Z,101824.41
2023-07-18T03:17:01.320Z,101814.44
2023-07-18T03:18:03.054Z,101828.09
2023-07-18T03:19:04.670Z,101828.09
2023-07-18T03:20:17.697Z,101826.16
2023-07-18T03:21:19.627Z,101832.63
2023-07-18T03:22:21.576Z,101828.97
2023-07-18T03:23:23.049Z,101831.69
2023-07-18T03:24:24.522Z,101839.91
2023-07-18T03:25:26.562Z,101836.28
2023-07-18T03:26:28.097Z,101833.56
2023-07-18T03:27:29.576Z,101840.81
2023-07-18T03:28:31.076Z,101837.19
2023-07-18T03:29:32.643Z,101842.63
2023-07-18T03:30:34.092Z,101837.22
2023-07-18T03:31:35.563Z,101841.69
2023-07-18T03:32:38.395Z,101846.25
2023-07-18T03:33:39.887Z,101842.53
2023-07-18T03:34:41.339Z,101829.72
2023-07-18T03:35:42.835Z,101836.13
2023-07-18T03:36:44.360Z,101835.22
2023-07-18T03:37:45.928Z,101831.59
2023-07-18T03:38:47.403Z,101839.78
2023-07-18T03:39:48.828Z,101839.78
2023-07-18T03:40:51.241Z,101839.75
2023-07-18T03:41:53.087Z,101836.09
2023-07-18T03:42:54.518Z,101834.28
2023-07-18T03:43:56.174Z,101827.91
2023-07-18T03:44:57.641Z,101826.09
2023-07-18T03:45:59.112Z,101829.66
2023-07-18T03:47:11.144Z,101830.66
2023-07-18T03:48:21.018Z,101821.47
2023-07-18T03:49:22.521Z,101826.09
2023-07-18T03:50:24.808Z,101826.13
2023-07-18T03:51:28.483Z,101828.91
2023-07-18T03:52:32.708Z,101833.47
2023-07-18T03:53:34.372Z,101837.06
2023-07-18T03:54:35.826Z,101832.53
2023-07-18T03:55:37.923Z,101838.00
2023-07-18T03:56:39.497Z,101832.47
2023-07-18T03:57:41.382Z,101830.66
2023-07-18T03:58:43.131Z,101829.66
2023-07-18T03:59:44.677Z,101831.44
2023-07-18T04:00:46.340Z,101831.44
2023-07-18T04:01:48.244Z,101835.13
2023-07-18T04:02:50.103Z,101835.13
2023-07-18T04:03:51.659Z,101833.22
2023-07-18T04:04:53.596Z,101833.22
2023-07-18T04:05:54.953Z,101835.03
2023-07-18T04:06:56.542Z,101836.88
2023-07-18T04:07:58.115Z,101837.81
2023-07-18T04:08:59.820Z,101830.50
2023-07-18T04:10:01.382Z,101834.09
2023-07-18T04:11:02.900Z,101831.38
2023-07-18T04:12:05.082Z,101830.47
2023-07-18T04:13:06.541Z,101836.84
2023-07-18T04:14:08.010Z,101835.03
2023-07-18T04:15:11.046Z,101837.72
2023-07-18T04:16:13.122Z,101842.28
2023-07-18T04:17:14.941Z,101848.56
2023-07-18T04:18:16.525Z,101843.06
2023-07-18T04:19:17.966Z,101841.25
2023-07-18T04:20:21.000Z,101842.13
2023-07-18T04:21:22.769Z,101835.72
2023-07-18T04:22:24.257Z,101842.03
2023-07-18T04:23:25.853Z,101834.78
2023-07-18T04:24:27.343Z,101840.19
2023-07-18T04:25:35.962Z,101833.78
2023-07-18T04:26:37.507Z,101832.59
2023-07-18T04:27:38.990Z,101832.09
2023-07-18T04:28:40.881Z,101814.84
2023-07-18T04:29:42.250Z,101811.84
2023-07-18T04:30:44.043Z,101791.28
2023-07-18T04:31:46.249Z,101782.59
2023-07-18T04:32:48.149Z,101787.03
2023-07-18T04:33:49.805Z,101777.81
2023-07-18T04:34:51.361Z,101776.91
2023-07-18T04:35:52.863Z,101774.72
2023-07-18T04:36:54.353Z,101769.91
2023-07-18T04:37:55.876Z,101765.31
2023-07-18T04:38:57.387Z,101758.34
2023-07-18T04:39:58.853Z,101756.25
2023-07-18T04:41:00.857Z,101757.34
2023-07-18T04:42:02.772Z,101748.19
2023-07-18T04:43:04.142Z,101766.00
2023-07-18T04:44:05.666Z,101762.78
2023-07-18T04:45:07.405Z,101758.97
2023-07-18T04:46:09.417Z,101762.19
2023-07-18T04:47:10.916Z,101761.25
2023-07-18T04:48:17.587Z,101764.41
2023-07-18T04:49:20.133Z,101759.72
2023-07-18T04:50:21.899Z,101764.47
2023-07-18T04:51:25.555Z,101769.13
2023-07-18T04:52:27.150Z,101757.47
2023-07-18T04:53:29.940Z,101783.50
2023-07-18T04:54:31.605Z,101780.66
2023-07-18T04:55:33.166Z,101778.88
2023-07-18T04:56:34.710Z,101769.69
2023-07-18T04:57:36.258Z,101779.66
2023-07-18T04:58:37.732Z,101785.75
2023-07-18T04:59:39.285Z,101774.91
2023-07-18T05:00:40.725Z,101776.66
2023-07-18T05:01:42.353Z,101769.22
2023-07-18T05:02:43.944Z,101772.78
2023-07-18T05:03:57.360Z,101766.16
2023-07-18T05:04:59.795Z,101776.00
2023-07-18T05:06:01.223Z,101768.59
2023-07-18T05:07:02.754Z,101766.75
2023-07-18T05:08:04.695Z,101770.28
2023-07-18T05:09:06.171Z,101760.03
2023-07-18T05:10:08.694Z,101760.69
2023-07-18T05:11:10.158Z,101764.88
2023-07-18T05:12:11.621Z,101762.13
2023-07-18T05:13:13.144Z,101760.88
2023-07-18T05:14:14.621Z,101767.38
2023-07-18T05:15:16.117Z,101762.63
2023-07-18T05:16:17.755Z,101762.91
2023-07-18T05:17:19.448Z,101775.31
2023-07-18T05:18:21.335Z,101769.53
2023-07-18T05:19:22.698Z,101764.97
2023-07-18T05:20:24.134Z,101760.56
2023-07-18T05:21:25.650Z,101764.66
2023-07-18T05:22:27.225Z,101757.31
2023-07-18T05:23:28.734Z,101758.94
2023-07-18T05:24:30.170Z,101755.59
2023-07-18T05:25:31.610Z,101753.88
2023-07-18T05:26:33.070Z,101755.50
2023-07-18T05:27:35.036Z,101749.78
2023-07-18T05:28:36.591Z,101753.25
2023-07-18T05:29:38.271Z,101754.31
2023-07-18T05:30:39.706Z,101753.56
2023-07-18T05:31:41.277Z,101760.25
2023-07-18T05:32:43.441Z,101758.53
2023-07-18T05:33:44.974Z,101761.03
2023-07-18T05:34:46.420Z,101752.09
2023-07-18T05:35:48.495Z,101757.88
2023-07-18T05:36:50.540Z,101755.69
2023-07-18T05:37:51.994Z,101754.16
2023-07-18T05:38:53.447Z,101759.38
2023-07-18T05:39:54.916Z,101752.97
2023-07-18T05:40:56.354Z,101755.47
2023-07-18T05:41:58.540Z,101744.78
2023-07-18T05:43:00.082Z,101741.84
2023-07-18T05:44:01.566Z,101742.44
2023-07-18T05:45:03.143Z,101749.75
2023-07-18T05:46:04.637Z,101739.69
2023-07-18T05:47:06.359Z,101736.81
2023-07-18T05:48:08.021Z,101746.13
2023-07-18T05:49:09.572Z,101749.34
2023-07-18T05:50:11.537Z,101746.59
2023-07-18T05:51:12.990Z,101747.22
2023-07-18T05:52:14.472Z,101749.09
2023-07-18T05:53:15.982Z,101739.09
2023-07-18T05:54:17.452Z,101750.66
2023-07-18T05:55:19.203Z,101747.22
2023-07-18T05:56:20.750Z,101748.66
2023-07-18T05:57:22.283Z,101750.09
2023-07-18T05:58:23.727Z,101733.78
2023-07-18T05:59:26.405Z,101737.97
2023-07-18T06:00:27.867Z,101745.91
2023-07-18T06:01:29.357Z,101747.94
2023-07-18T06:02:30.913Z,101742.72
2023-07-18T06:03:32.507Z,101749.19
2023-07-18T06:04:36.322Z,101742.88
2023-07-18T06:05:37.934Z,101743.06
2023-07-18T06:06:39.962Z,101742.56
2023-07-18T06:07:41.872Z,101736.06
2023-07-18T06:08:43.562Z,101746.94
2023-07-18T06:09:45.155Z,101746.78
2023-07-18T06:10:46.628Z,101746.31
2023-07-18T06:11:48.095Z,101739.91
2023-07-18T06:12:50.729Z,101734.72
2023-07-18T06:13:52.551Z,101742.19
2023-07-18T06:14:55.939Z,101741.09
2023-07-18T06:15:57.487Z,101740.09
2023-07-18T06:16:59.217Z,101745.38
2023-07-18T06:18:00.817Z,101756.00
2023-07-18T06:19:02.501Z,101756.13
2023-07-18T06:20:09.769Z,101746.72
2023-07-18T06:21:11.274Z,101754.06
2023-07-18T06:22:13.372Z,101752.00
2023-07-18T06:23:15.455Z,101742.97
2023-07-18T06:24:19.301Z,101744.41
2023-07-18T06:25:22.134Z,101749.78
2023-07-18T06:26:23.923Z,101750.25
2023-07-18T06:27:27.817Z,101750.91
2023-07-18T06:28:29.326Z,101751.66
2023-07-18T06:29:32.162Z,101745.50
2023-07-18T06:30:33.848Z,101743.41
2023-07-18T06:31:36.551Z,101744.31
2023-07-18T06:32:40.220Z,101746.72
2023-07-18T06:33:42.273Z,101746.72
2023-07-18T06:34:44.121Z,101750.59
2023-07-18T06:35:52.824Z,101751.28
2023-07-18T06:36:54.391Z,101748.53
2023-07-18T06:37:55.984Z,101745.44
2023-07-18T06:38:57.539Z,101750.16
2023-07-18T06:39:59.054Z,101756.47
2023-07-18T06:41:00.975Z,101751.69
2023-07-18T06:42:02.608Z,101756.16
2023-07-18T06:43:04.344Z,101752.31
2023-07-18T06:44:06.706Z,101754.91
2023-07-18T06:45:08.619Z,101746.72
2023-07-18T06:46:09.995Z,101749.34
2023-07-18T06:47:11.532Z,101751.31
2023-07-18T06:48:14.012Z,101756.44
2023-07-18T06:49:16.602Z,101743.28
2023-07-18T06:50:18.119Z,101749.66
2023-07-18T06:51:19.901Z,101757.16
2023-07-18T06:52:22.005Z,101746.94
2023-07-18T06:53:23.858Z,101757.81
2023-07-18T06:54:25.277Z,101753.16
2023-07-18T06:55:26.779Z,101740.91
2023-07-18T06:56:28.252Z,101740.66
2023-07-18T06:57:29.757Z,101746.03
2023-07-18T06:58:31.229Z,101742.34
2023-07-18T06:59:32.688Z,101743.00
2023-07-18T07:00:34.250Z,101748.16
2023-07-18T07:01:36.051Z,101746.22
2023-07-18T07:02:37.559Z,101748.88
2023-07-18T07:03:39.739Z,101749.47
2023-07-18T07:04:41.293Z,101745.88
2023-07-18T07:05:43.955Z,101744.75
2023-07-18T07:06:45.484Z,101753.06
2023-07-18T07:07:48.270Z,101750.22
2023-07-18T07:08:49.766Z,101742.03
2023-07-18T07:09:51.223Z,101745.66
2023-07-18T07:11:03.413Z,101745.66
2023-07-18T07:12:05.502Z,101739.63
2023-07-18T07:13:07.892Z,101738.81
2023-07-18T07:14:09.644Z,101751.53
2023-07-18T07:15:11.669Z,101739.25
2023-07-18T07:16:13.248Z,101737.59
2023-07-18T07:17:14.820Z,101747.47
2023-07-18T07:18:16.312Z,101740.34
2023-07-18T07:19:18.226Z,101740.19
2023-07-18T07:20:20.509Z,101741.94
2023-07-18T07:21:22.162Z,101735.06
2023-07-18T07:22:23.922Z,101737.00
2023-07-18T07:23:25.678Z,101743.41
2023-07-18T07:24:27.438Z,101731.69
2023-07-18T07:25:31.159Z,101741.84
2023-07-18T07:26:33.212Z,101737.16
2023-07-18T07:27:34.642Z,101738.06
2023-07-18T07:28:36.673Z,101739.59
2023-07-18T07:29:41.253Z,101739.09
2023-07-18T07:30:42.740Z,101743.22
2023-07-18T07:31:44.335Z,101736.38
2023-07-18T07:32:48.833Z,101736.13
2023-07-18T07:33:50.473Z,101722.41
2023-07-18T07:34:51.938Z,101731.31
2023-07-18T07:35:53.406Z,101726.69
2023-07-18T07:36:54.849Z,101732.13
2023-07-18T07:37:56.353Z,101728.06
2023-07-18T07:38:57.832Z,101720.91
2023-07-18T07:39:59.375Z,101732.50
2023-07-18T07:41:00.881Z,101725.00
2023-07-18T07:42:02.440Z,101713.78
2023-07-18T07:43:03.953Z,101726.47
2023-07-18T07:44:05.531Z,101730.78
2023-07-18T07:45:08.208Z,101732.44
2023-07-18T07:46:09.795Z,101726.25
2023-07-18T07:47:11.410Z,101725.06
2023-07-18T07:48:12.930Z,101718.28
2023-07-18T07:49:14.447Z,101722.38
2023-07-18T07:50:16.206Z,101720.06
2023-07-18T07:51:18.239Z,101718.28
2023-07-18T07:52:20.129Z,101723.69
2023-07-18T07:53:21.623Z,101726.00
2023-07-18T07:54:23.104Z,101713.41
2023-07-18T07:55:24.765Z,101724.94
2023-07-18T07:56:26.459Z,101717.22
2023-07-18T07:57:29.227Z,101722.38
2023-07-18T07:58:30.777Z,101719.03
2023-07-18T07:59:32.267Z,101718.53
2023-07-18T08:00:33.752Z,101713.13
2023-07-18T08:01:35.259Z,101713.53
2023-07-18T08:02:36.855Z,101712.19
2023-07-18T08:03:39.064Z,101712.19
2023-07-18T08:04:42.766Z,101708.28
2023-07-18T08:05:44.495Z,101705.69
2023-07-18T08:06:46.662Z,101706.56
2023-07-18T08:07:48.140Z,101698.69
2023-07-18T08:08:49.616Z,101708.19
2023-07-18T08:09:51.239Z,101708.75
2023-07-18T08:10:53.351Z,101701.47
2023-07-18T08:11:54.791Z,101708.56
2023-07-18T08:12:56.292Z,101699.31
2023-07-18T08:13:57.842Z,101701.78
2023-07-18T08:14:59.367Z,101704.63
2023-07-18T08:16:00.942Z,101702.03
2023-07-18T08:17:02.999Z,101697.75
2023-07-18T08:18:04.650Z,101686.41
2023-07-18T08:19:06.459Z,101699.13
2023-07-18T08:20:09.401Z,101697.88
2023-07-18T08:21:10.883Z,101693.59
2023-07-18T08:22:12.378Z,101691.56
2023-07-18T08:23:15.967Z,101697.59
2023-07-18T08:24:18.224Z,101695.88
2023-07-18T08:25:19.803Z,101698.13
2023-07-18T08:26:21.235Z,101693.09
2023-07-18T08:27:22.770Z,101687.50
2023-07-18T08:28:24.258Z,101693.16
2023-07-18T08:29:28.237Z,101689.28
2023-07-18T08:30:29.792Z,101682.66
2023-07-18T08:31:31.286Z,101689.94
2023-07-18T08:32:32.841Z,101686.00
2023-07-18T08:33:34.361Z,101688.28
2023-07-18T08:34:36.892Z,101684.75
2023-07-18T08:35:39.511Z,101685.69
2023-07-18T08:36:41.001Z,101689.53
2023-07-18T08:37:42.591Z,101681.44
2023-07-18T08:38:51.226Z,101691.13
2023-07-18T08:39:52.873Z,101684.53
2023-07-18T08:40:54.332Z,101680.28
2023-07-18T08:41:58.985Z,101677.81
2023-07-18T08:43:00.690Z,101674.84
2023-07-18T08:44:04.262Z,101675.31
2023-07-18T08:45:09.896Z,101679.47
2023-07-18T08:46:14.637Z,101680.00
2023-07-18T08:47:17.253Z,101673.91
2023-07-18T08:48:18.772Z,101664.72
2023-07-18T08:49:22.426Z,101673.84
2023-07-18T08:50:26.224Z,101670.91
2023-07-18T08:51:29.327Z,101667.00
2023-07-18T08:52:30.936Z,101659.53
2023-07-18T08:53:32.659Z,101659.34
2023-07-18T08:54:35.482Z,101662.66
2023-07-18T08:55:37.704Z,101664.19
2023-07-18T08:56:44.911Z,101663.06
2023-07-18T08:57:47.347Z,101665.00
2023-07-18T08:58:48.898Z,101666.66
2023-07-18T08:59:50.652Z,101669.00
2023-07-18T09:00:52.078Z,101668.31
2023-07-18T09:01:54.417Z,101662.69
2023-07-18T09:02:56.163Z,101657.31
2023-07-18T09:03:57.706Z,101658.25
2023-07-18T09:04:59.232Z,101657.78
2023-07-18T09:06:21.162Z,101657.59
2023-07-18T09:07:28.108Z,101648.91
2023-07-18T09:08:40.854Z,101661.22
2023-07-18T09:09:48.556Z,101653.00
2023-07-18T09:11:03.335Z,101651.94
2023-07-18T09:12:06.201Z,101650.00
2023-07-18T09:13:09.068Z,101644.16
2023-07-18T09:14:23.059Z,101644.50
2023-07-18T09:15:24.594Z,101643.06
2023-07-18T09:16:26.224Z,101646.59
2023-07-18T09:17:28.463Z,101650.13
2023-07-18T09:18:29.992Z,101631.56
2023-07-18T09:19:41.781Z,101642.88
2023-07-18T09:20:43.242Z,101639.66
2023-07-18T09:21:44.829Z,101633.19
2023-07-18T09:22:46.369Z,101636.56
2023-07-18T09:23:48.604Z,101638.78
2023-07-18T09:24:50.075Z,101628.59
2023-07-18T09:25:51.604Z,101626.00
2023-07-18T09:26:56.564Z,101638.06
2023-07-18T09:27:59.284Z,101630.03
2023-07-18T09:29:02.216Z,101631.91
2023-07-18T09:30:04.026Z,101626.72
2023-07-18T09:31:21.537Z,101632.41
2023-07-18T09:32:24.669Z,101628.97
2023-07-18T09:33:26.458Z,101639.66
2023-07-18T09:34:28.640Z,101628.16
2023-07-18T09:35:30.113Z,101622.28
2023-07-18T09:36:31.941Z,101627.81
2023-07-18T09:37:46.680Z,101620.81
2023-07-18T09:38:49.726Z,101617.69
2023-07-18T09:39:52.159Z,101618.84
2023-07-18T09:40:55.601Z,101627.66
2023-07-18T09:41:57.790Z,101623.41
2023-07-18T09:43:01.523Z,101631.75
2023-07-18T09:44:22.332Z,101634.16
2023-07-18T09:45:28.642Z,101626.13
2023-07-18T09:46:30.590Z,101616.44
2023-07-18T09:47:34.131Z,101626.91
2023-07-18T09:48:44.688Z,101623.31
2023-07-18T09:49:47.361Z,101617.91
2023-07-18T09:50:52.200Z,101616.72
2023-07-18T09:52:05.442Z,101611.03
2023-07-18T09:53:12.261Z,101605.06
2023-07-18T09:54:15.791Z,101606.81
2023-07-18T09:55:28.315Z,101607.34
2023-07-18T09:56:33.977Z,101602.34
2023-07-18T09:57:38.470Z,101602.69
2023-07-18T09:58:40.461Z,101595.88
2023-07-18T09:59:41.995Z,101603.13
2023-07-18T10:00:46.225Z,101608.84
2023-07-18T10:01:55.380Z,101607.75
2023-07-18T10:02:57.507Z,101605.97
2023-07-18T10:04:00.201Z,101603.50
2023-07-18T10:05:06.418Z,101591.34
2023-07-18T10:06:15.950Z,101606.84
2023-07-18T10:07:18.420Z,101594.84
2023-07-18T10:08:20.444Z,101605.47
2023-07-18T10:09:24.377Z,101599.78
2023-07-18T10:10:26.230Z,101604.09
2023-07-18T10:11:27.931Z,101600.78
2023-07-18T10:12:29.429Z,101592.63
2023-07-18T10:13:40.809Z,101590.78
2023-07-18T10:14:58.143Z,101599.09
2023-07-18T10:16:14.874Z,101598.81
2023-07-18T10:17:48.651Z,101596.63
2023-07-18T10:18:51.971Z,101599.03
2023-07-18T10:19:53.443Z,101598.88
2023-07-18T10:21:01.787Z,101591.28
2023-07-18T10:22:03.723Z,101592.09
2023-07-18T10:23:06.316Z,101580.59
2023-07-18T10:24:24.644Z,101600.66
2023-07-18T10:25:31.080Z,101589.03
2023-07-18T10:26:33.999Z,101582.78
2023-07-18T10:27:40.825Z,101574.06
2023-07-18T10:28:46.972Z,101582.22
2023-07-18T10:30:09.488Z,101575.41
2023-07-18T10:31:31.129Z,101576.69
2023-07-18T10:32:34.174Z,101570.94
2023-07-18T10:33:35.759Z,101576.94
2023-07-18T10:34:40.628Z,101579.59
2023-07-18T10:35:42.979Z,101570.03
2023-07-18T10:36:58.927Z,101575.88
2023-07-18T10:38:04.318Z,101565.41
2023-07-18T10:39:16.042Z,101565.91
2023-07-18T10:40:37.308Z,101571.06
2023-07-18T10:41:46.568Z,101560.81
2023-07-18T10:42:48.051Z,101560.53
2023-07-18T10:43:49.496Z,101548.97
2023-07-18T10:45:01.914Z,101551.97
2023-07-18T10:46:08.222Z,101549.41
2023-07-18T10:47:13.907Z,101554.34
2023-07-18T10:48:21.849Z,101548.69
2023-07-18T10:49:32.649Z,101544.84
2023-07-18T10:50:35.267Z,101542.31
2023-07-18T10:51:36.773Z,101549.81
2023-07-18T10:52:38.512Z,101540.63
2023-07-18T10:53:41.910Z,101552.59
2023-07-18T10:54:56.417Z,101538.63
2023-07-18T10:55:58.932Z,101530.09
2023-07-18T10:57:01.068Z,101530.94
2023-07-18T10:58:02.564Z,101531.03
2023-07-18T10:59:04.171Z,101523.41
2023-07-18T11:00:07.670Z,101525.47
2023-07-18T11:01:10.189Z,101534.22
2023-07-18T11:02:12.810Z,101527.25
2023-07-18T11:03:24.710Z,101524.34
2023-07-18T11:04:26.533Z,101519.22
2023-07-18T11:05:28.167Z,101523.31
2023-07-18T11:06:29.737Z,101523.31
2023-07-18T11:07:36.144Z,101526.28
2023-07-18T11:08:38.784Z,101510.72
2023-07-18T11:09:42.417Z,101527.09
2023-07-18T11:10:43.942Z,101513.72
2023-07-18T11:11:45.434Z,101510.91
2023-07-18T11:12:46.916Z,101514.78
2023-07-18T11:13:48.393Z,101512.34
2023-07-18T11:14:49.824Z,101507.97
2023-07-18T11:15:51.318Z,101501.19
2023-07-18T11:16:54.319Z,101507.94
2023-07-18T11:17:56.052Z,101508.09
2023-07-18T11:19:00.434Z,101505.22
2023-07-18T11:20:02.947Z,101512.53
2023-07-18T11:21:08.198Z,101504.78
2023-07-18T11:22:14.400Z,101491.47
2023-07-18T11:23:16.096Z,101492.56
2023-07-18T11:24:17.881Z,101497.38
2023-07-18T11:25:19.333Z,101491.00
2023-07-18T11:26:21.086Z,101484.31
2023-07-18T11:27:23.180Z,101491.94
2023-07-18T11:28:33.619Z,101489.13
2023-07-18T11:29:35.073Z,101476.16
2023-07-18T11:30:36.785Z,101474.25
2023-07-18T11:31:42.828Z,101480.25
2023-07-18T11:32:46.909Z,101481.75
2023-07-18T11:33:53.472Z,101484.47
2023-07-18T11:34:59.449Z,101476.38
2023-07-18T11:36:01.260Z,101476.88
2023-07-18T11:37:02.795Z,101477.44
2023-07-18T11:38:04.322Z,101473.66
2023-07-18T11:39:21.256Z,101469.16
2023-07-18T11:40:26.967Z,101470.88
2023-07-18T11:41:41.830Z,101477.31
2023-07-18T11:42:51.184Z,101469.31
2023-07-18T11:43:55.581Z,101474.66
2023-07-18T11:44:57.050Z,101475.44
2023-07-18T11:45:58.542Z,101470.75
2023-07-18T11:47:00.001Z,101477.81
2023-07-18T11:48:01.871Z,101479.16
2023-07-18T11:49:04.428Z,101468.84
2023-07-18T11:50:10.894Z,101475.16
2023-07-18T11:51:12.816Z,101457.97
2023-07-18T11:52:19.146Z,101458.34
2023-07-18T11:53:27.646Z,101453.06
2023-07-18T11:54:29.361Z,101457.91
2023-07-18T11:55:32.221Z,101457.28
2023-07-18T11:56:35.768Z,101453.84
2023-07-18T11:57:37.619Z,101458.66
2023-07-18T11:58:39.529Z,101460.94